createdAt,value
2022-09-24T00:01:18.742Z,101292.91
2022-09-24T00:06:23.004Z,101292.03
2022-09-24T00:11:27.762Z,101292.03
2022-09-24T00:16:33.990Z,101289.28
2022-09-24T00:21:38.433Z,101269.91
2022-09-24T00:26:53.786Z,101276.06
2022-09-24T00:31:58.116Z,101271.59
2022-09-24T00:37:01.182Z,101260.88
2022-09-24T00:42:04.097Z,101263.69
2022-09-24T00:47:14.844Z,101262.81
2022-09-24T00:52:19.807Z,101263.53
2022-09-24T00:57:23.999Z,101258.34
2022-09-24T01:02:28.474Z,101249.50
2022-09-24T01:07:31.518Z,101240.63
2022-09-24T01:12:40.677Z,101240.63
2022-09-24T01:17:52.417Z,101237.09
2022-09-24T01:23:10.937Z,101237.84
2022-09-24T01:28:33.171Z,101236.97
2022-09-24T01:33:38.090Z,101226.34
2022-09-24T01:38:44.468Z,101227.25
2022-09-24T01:43:48.430Z,101222.63
2022-09-24T01:48:52.874Z,101219.06
2022-09-24T01:53:58.929Z,101218.06
2022-09-24T01:59:05.740Z,101206.63
2022-09-24T02:04:16.744Z,101205.00
2022-09-24T02:09:34.634Z,101199.56
2022-09-24T02:14:41.222Z,101194.34
2022-09-24T02:19:47.860Z,101182.00
2022-09-24T02:24:53.874Z,101188.09
2022-09-24T02:29:58.306Z,101186.31
2022-09-24T02:35:06.853Z,101178.44
2022-09-24T02:40:13.200Z,101165.22
2022-09-24T02:45:16.259Z,101173.06
2022-09-24T02:50:20.734Z,101166.94
2022-09-24T02:55:24.243Z,101169.56
2022-09-24T03:00:27.185Z,101172.13
2022-09-24T03:05:32.013Z,101165.91
2022-09-24T03:10:35.041Z,101156.09
2022-09-24T03:15:38.259Z,101159.66
2022-09-24T03:20:42.840Z,101150.78
2022-09-24T03:25:45.708Z,101151.56
2022-09-24T03:31:01.081Z,101146.38
2022-09-24T03:36:07.203Z,101141.03
2022-09-24T03:41:11.707Z,101147.16
2022-09-24T03:46:17.367Z,101137.44
2022-09-24T03:51:22.851Z,101130.53
2022-09-24T03:56:25.826Z,101136.78
2022-09-24T04:01:32.585Z,101143.81
2022-09-24T04:06:37.353Z,101141.09
2022-09-24T04:11:40.334Z,101134.06
2022-09-24T04:16:43.546Z,101131.44
2022-09-24T04:21:48.023Z,101133.34
2022-09-24T04:26:51.570Z,101136.00
2022-09-24T04:31:54.704Z,101128.09
2022-09-24T04:36:58.974Z,101121.97
2022-09-24T04:42:01.946Z,101120.16
2022-09-24T04:47:07.584Z,101113.16
2022-09-24T04:52:11.969Z,101110.50
2022-09-24T04:57:14.916Z,101119.25
2022-09-24T05:02:18.737Z,101120.13
2022-09-24T05:07:23.386Z,101120.97
2022-09-24T05:12:26.335Z,101114.78
2022-09-24T05:17:29.453Z,101126.31
2022-09-24T05:22:33.927Z,101126.34
2022-09-24T05:27:36.842Z,101130.81
2022-09-24T05:32:40.057Z,101137.00
2022-09-24T05:37:44.526Z,101145.84
2022-09-24T05:42:47.434Z,101147.50
2022-09-24T05:47:50.791Z,101143.03
2022-09-24T05:52:55.300Z,101153.66
2022-09-24T05:58:03.811Z,101151.94
2022-09-24T06:03:09.035Z,101158.19
2022-09-24T06:08:15.374Z,101150.22
2022-09-24T06:13:20.881Z,101157.31
2022-09-24T06:18:24.604Z,101158.28
2022-09-24T06:23:29.266Z,101160.03
2022-09-24T06:28:32.212Z,101158.31
2022-09-24T06:33:35.195Z,101162.75
2022-09-24T06:38:41.320Z,101172.44
2022-09-24T06:43:44.250Z,101175.16
2022-09-24T06:48:51.910Z,101174.41
2022-09-24T06:53:56.453Z,101180.59
2022-09-24T06:58:59.636Z,101182.34
2022-09-24T07:04:03.151Z,101185.00
2022-09-24T07:09:09.628Z,101185.91
2022-09-24T07:14:13.704Z,101194.75
2022-09-24T07:19:16.603Z,101198.28
2022-09-24T07:24:20.973Z,101195.72
2022-09-24T07:29:24.502Z,101201.09
2022-09-24T07:34:27.534Z,101202.03
2022-09-24T07:39:33.004Z,101203.88
2022-09-24T07:44:36.752Z,101211.03
2022-09-24T07:49:39.792Z,101218.06
2022-09-24T07:54:44.416Z,101215.63
2022-09-24T07:59:48.054Z,101213.78
2022-09-24T08:04:51.035Z,101217.59
2022-09-24T08:09:55.503Z,101224.59
2022-09-24T08:14:58.414Z,101224.78
2022-09-24T08:20:01.449Z,101232.75
2022-09-24T08:25:06.697Z,101238.03
2022-09-24T08:30:10.829Z,101235.47
2022-09-24T08:35:15.759Z,101244.38
2022-09-24T08:40:23.617Z,101251.50
2022-09-24T08:45:44.247Z,101254.22
2022-09-24T08:50:53.389Z,101251.66
2022-09-24T08:56:00.500Z,101257.06
2022-09-24T09:01:14.398Z,101261.59
2022-09-24T09:06:44.368Z,101264.34
2022-09-24T09:11:51.270Z,101274.09
2022-09-24T09:16:59.538Z,101271.50
2022-09-24T09:22:06.429Z,101276.78
2022-09-24T09:27:15.293Z,101277.88
2022-09-24T09:32:27.094Z,101283.19
2022-09-24T09:37:39.902Z,101284.00
2022-09-24T09:42:45.551Z,101286.56
2022-09-24T10:01:42.689Z,101287.56
2022-09-24T10:06:45.879Z,101288.53
2022-09-24T10:11:49.216Z,101291.47
2022-09-24T10:16:56.646Z,101289.09
2022-09-24T10:22:08.579Z,101290.06
2022-09-24T10:27:12.805Z,101294.69
2022-09-24T10:32:20.613Z,101295.78
2022-09-24T10:37:23.672Z,101293.41
2022-09-24T10:42:28.572Z,101299.66
2022-09-24T10:47:45.211Z,101306.84
2022-09-24T10:52:54.294Z,101294.81
2022-09-24T10:58:04.062Z,101294.81
2022-09-24T11:03:39.509Z,101308.19
2022-09-24T11:09:07.429Z,101317.28
2022-09-24T11:14:28.110Z,101312.81
2022-09-24T11:20:00.908Z,101320.78
2022-09-24T11:25:27.455Z,101322.19
2022-09-24T11:30:40.708Z,101315.31
2022-09-24T11:35:57.273Z,101316.16
2022-09-24T11:41:12.708Z,101320.63
2022-09-24T11:46:29.656Z,101319.78
2022-09-24T11:51:45.746Z,101336.50
2022-09-24T11:56:55.193Z,101331.94
2022-09-24T12:02:02.307Z,101334.31
2022-09-24T12:07:13.275Z,101325.47
2022-09-24T12:12:22.113Z,101338.00
2022-09-24T12:17:29.408Z,101335.38
2022-09-24T12:22:34.156Z,101331.69
2022-09-24T12:27:40.015Z,101331.44
2022-09-24T12:32:58.112Z,101329.13
2022-09-24T12:38:07.801Z,101334.19
2022-09-24T12:43:25.228Z,101344.41
2022-09-24T12:48:30.987Z,101346.81
2022-09-24T12:53:36.862Z,101348.28
2022-09-24T12:58:43.776Z,101339.03
2022-09-24T13:03:47.674Z,101356.41
2022-09-24T13:08:51.570Z,101349.31
2022-09-24T13:14:09.572Z,101352.66
2022-09-24T13:19:25.390Z,101349.03
2022-09-24T13:24:30.431Z,101356.81
2022-09-24T13:29:39.954Z,101359.38
2022-09-24T13:34:48.823Z,101356.66
2022-09-24T13:39:57.289Z,101353.81
2022-09-24T13:45:07.560Z,101370.56
2022-09-24T13:50:18.542Z,101374.47
2022-09-24T13:55:25.630Z,101377.03
2022-09-24T14:00:32.353Z,101374.38
2022-09-24T14:05:37.511Z,101379.81
2022-09-24T14:10:41.093Z,101381.75
2022-09-24T14:15:53.836Z,101385.44
2022-09-24T14:21:00.536Z,101384.81
2022-09-24T14:26:05.133Z,101387.47
2022-09-24T14:31:10.582Z,101387.75
2022-09-24T14:36:15.854Z,101389.50
2022-09-24T14:41:21.485Z,101386.66
2022-09-24T14:46:29.840Z,101390.94
2022-09-24T14:51:33.742Z,101392.50
2022-09-24T14:56:37.197Z,101395.38
2022-09-24T15:01:41.995Z,101396.47
2022-09-24T20:33:21.230Z,101623.69
2022-09-24T20:38:25.685Z,101620.94
2022-09-24T20:43:28.778Z,101627.69
2022-09-24T20:48:33.341Z,101627.34
2022-09-24T20:53:37.777Z,101622.72
2022-09-24T20:58:40.980Z,101625.09
2022-09-24T21:03:45.251Z,101629.28
2022-09-24T21:08:50.698Z,101632.50
2022-09-24T21:13:55.317Z,101637.47
2022-09-24T21:18:59.160Z,101633.53
2022-09-24T21:24:03.807Z,101645.56
2022-09-24T21:29:09.155Z,101635.75
2022-09-24T21:34:13.803Z,101639.03
2022-09-24T21:39:20.337Z,101644.84
2022-09-24T21:44:23.250Z,101649.16
2022-09-24T21:49:26.544Z,101648.84
2022-09-24T21:54:33.224Z,101633.25
2022-09-24T21:59:54.105Z,101647.06
2022-09-24T22:04:57.084Z,101643.19
2022-09-24T22:10:01.506Z,101647.22
2022-09-24T22:15:05.074Z,101652.25
2022-09-24T22:20:09.047Z,101643.88
2022-09-24T22:25:13.517Z,101652.38
2022-09-24T22:30:16.470Z,101646.91
2022-09-24T22:35:42.326Z,101646.47
2022-09-24T22:40:47.969Z,101648.00
2022-09-24T22:45:51.096Z,101648.66
2022-09-24T22:50:54.154Z,101650.34
2022-09-24T22:56:06.086Z,101652.59
2022-09-24T23:01:09.779Z,101647.13
2022-09-24T23:06:13.039Z,101651.19
2022-09-24T23:11:19.478Z,101655.41
2022-09-24T23:16:24.417Z,101653.44
2022-09-24T23:21:30.579Z,101652.47
2022-09-24T23:26:35.456Z,101648.63
2022-09-24T23:31:38.340Z,101641.09
2022-09-24T23:36:41.540Z,101649.97
2022-09-24T23:41:46.112Z,101650.56
2022-09-24T23:46:49.154Z,101653.94
2022-09-24T23:51:52.153Z,101659.03
2022-09-24T23:56:57.089Z,101654.47
